createdAt,value
2019-05-11T00:00:22.497Z,997.5
2019-05-11T00:01:26.495Z,997.5
2019-05-11T00:02:29.772Z,997.4
2019-05-11T00:03:33.071Z,997.4
2019-05-11T00:04:36.825Z,997.4
2019-05-11T00:05:40.507Z,997.4
2019-05-11T00:06:44.342Z,997.4
2019-05-11T00:07:48.994Z,997.4
2019-05-11T00:08:53.923Z,997.4
2019-05-11T00:09:58.922Z,997.3
2019-05-11T00:11:03.004Z,997.4
2019-05-11T00:12:06.695Z,997.4
2019-05-11T00:13:09.830Z,997.4
2019-05-11T00:14:13.515Z,997.4
2019-05-11T00:15:17.022Z,997.3
2019-05-11T00:16:19.818Z,997.3
2019-05-11T00:17:24.823Z,997.3
2019-05-11T00:18:27.327Z,997.3
2019-05-11T00:19:30.971Z,997.2
2019-05-11T00:20:36.188Z,997.3
2019-05-11T00:21:41.855Z,997.3
2019-05-11T00:22:46.644Z,997.3
2019-05-11T00:23:54.860Z,997.3
2019-05-11T00:25:04.733Z,997.4
2019-05-11T00:26:12.432Z,997.4
2019-05-11T00:27:18.716Z,997.3
2019-05-11T00:28:25.985Z,997.3
2019-05-11T00:29:32.537Z,997.3
2019-05-11T00:30:39.805Z,997.3
2019-05-11T00:31:45.446Z,997.3
2019-05-11T00:32:51.799Z,997.3
2019-05-11T00:33:58.616Z,997.2
2019-05-11T00:35:03.066Z,997.2
2019-05-11T00:36:06.282Z,997.2
2019-05-11T00:37:09.918Z,997.2
2019-05-11T00:38:14.495Z,997.1
2019-05-11T00:39:20.058Z,997.1
2019-05-11T00:40:23.632Z,997.1
2019-05-11T00:41:26.421Z,997.1
2019-05-11T00:42:30.643Z,997.0
2019-05-11T00:43:34.259Z,997.0
2019-05-11T00:44:38.139Z,997.0
2019-05-11T00:45:42.048Z,997.0
2019-05-11T00:46:48.121Z,997.0
2019-05-11T00:47:51.611Z,996.9
2019-05-11T00:48:54.684Z,996.9
2019-05-11T00:49:57.922Z,996.9
2019-05-11T00:51:01.598Z,996.9
2019-05-11T00:52:04.694Z,996.9
2019-05-11T00:53:07.980Z,996.9
2019-05-11T00:54:10.983Z,996.9
2019-05-11T00:55:14.435Z,996.9
2019-05-11T00:56:17.644Z,996.9
2019-05-11T00:57:20.864Z,996.9
2019-05-11T00:58:25.993Z,996.9
2019-05-11T00:59:30.381Z,997.0
2019-05-11T01:00:33.816Z,996.9
2019-05-11T01:01:38.201Z,996.9
2019-05-11T01:02:42.158Z,996.9
2019-05-11T01:03:46.825Z,996.9
2019-05-11T01:04:49.635Z,996.8
2019-05-11T01:05:53.384Z,996.8
2019-05-11T01:06:56.574Z,996.8
2019-05-11T01:07:59.903Z,996.7
2019-05-11T01:09:03.397Z,996.8
2019-05-11T01:10:06.937Z,996.7
2019-05-11T01:11:09.848Z,996.8
2019-05-11T01:12:13.058Z,996.8
2019-05-11T01:13:15.529Z,996.8
2019-05-11T01:14:18.328Z,996.8
2019-05-11T01:15:22.202Z,996.7
2019-05-11T01:16:24.694Z,996.7
2019-05-11T01:17:27.869Z,996.7
2019-05-11T01:18:31.487Z,996.7
2019-05-11T01:19:35.849Z,996.7
2019-05-11T01:20:39.027Z,996.7
2019-05-11T01:21:41.991Z,996.6
2019-05-11T01:22:44.957Z,996.7
2019-05-11T01:23:48.473Z,996.6
2019-05-11T01:24:51.129Z,996.7
2019-05-11T01:25:54.305Z,996.6
2019-05-11T01:26:56.949Z,996.7
2019-05-11T01:28:00.372Z,996.7
2019-05-11T01:29:03.533Z,996.7
2019-05-11T01:30:06.599Z,996.7
2019-05-11T01:31:11.012Z,996.7
2019-05-11T01:32:15.942Z,996.6
2019-05-11T01:33:19.546Z,996.6
2019-05-11T01:34:24.695Z,996.6
2019-05-11T01:35:27.805Z,996.5
2019-05-11T01:36:32.203Z,996.4
2019-05-11T01:37:37.002Z,996.4
2019-05-11T01:38:42.154Z,996.5
2019-05-11T01:39:47.053Z,996.5
2019-05-11T01:40:58.238Z,996.5
2019-05-11T01:41:55.017Z,996.5
2019-05-11T01:42:59.196Z,996.5
2019-05-11T01:44:02.336Z,996.5
2019-05-11T01:45:05.462Z,996.5
2019-05-11T01:46:08.873Z,996.6
2019-05-11T01:47:12.381Z,996.6
2019-05-11T01:48:16.211Z,996.7
2019-05-11T01:49:20.884Z,996.7
2019-05-11T01:50:26.365Z,996.7
2019-05-11T01:51:29.995Z,996.7
2019-05-11T01:52:34.499Z,996.8
2019-05-11T01:53:39.146Z,996.8
2019-05-11T01:54:44.674Z,996.8
2019-05-11T01:55:48.633Z,996.8
2019-05-11T01:56:53.206Z,996.8
2019-05-11T01:57:57.090Z,996.8
2019-05-11T01:59:00.300Z,996.8
2019-05-11T02:00:02.484Z,996.8
2019-05-11T02:01:07.435Z,996.7
2019-05-11T02:02:10.305Z,996.7
2019-05-11T02:03:14.701Z,996.6
2019-05-11T02:04:17.646Z,996.6
2019-05-11T02:05:20.725Z,996.6
2019-05-11T02:06:23.116Z,996.5
2019-05-11T02:07:25.936Z,996.5
2019-05-11T02:08:28.671Z,996.5
2019-05-11T02:09:32.164Z,996.5
2019-05-11T02:10:35.133Z,996.5
2019-05-11T02:11:37.876Z,996.5
2019-05-11T02:12:41.073Z,996.5
2019-05-11T02:13:44.148Z,996.5
2019-05-11T02:14:46.593Z,996.5
2019-05-11T02:15:49.282Z,996.5
2019-05-11T02:16:51.235Z,996.5
2019-05-11T02:17:53.795Z,996.5
2019-05-11T02:18:56.318Z,996.5
2019-05-11T02:20:01.288Z,996.5
2019-05-11T02:21:03.924Z,996.6
2019-05-11T02:22:07.110Z,996.5
2019-05-11T02:23:10.740Z,996.5
2019-05-11T02:24:14.042Z,996.5
2019-05-11T02:25:19.315Z,996.5
2019-05-11T02:26:22.023Z,996.5
2019-05-11T02:27:24.495Z,996.5
2019-05-11T02:28:28.585Z,996.5
2019-05-11T02:29:31.476Z,996.5
2019-05-11T02:30:34.095Z,996.5
2019-05-11T02:31:36.872Z,996.4
2019-05-11T02:32:39.234Z,996.4
2019-05-11T02:33:42.017Z,996.4
2019-05-11T02:34:44.654Z,996.4
2019-05-11T02:35:46.950Z,996.4
2019-05-11T02:36:49.692Z,996.4
2019-05-11T02:37:51.998Z,996.4
2019-05-11T02:38:55.113Z,996.4
2019-05-11T02:39:58.284Z,996.4
2019-05-11T02:41:01.198Z,996.4
2019-05-11T02:42:03.732Z,996.4
2019-05-11T02:43:06.531Z,996.4
2019-05-11T02:44:09.065Z,996.5
2019-05-11T02:45:12.368Z,996.5
2019-05-11T02:46:14.956Z,996.5
2019-05-11T02:47:18.268Z,996.5
2019-05-11T02:48:21.367Z,996.5
2019-05-11T02:49:27.579Z,996.5
2019-05-11T02:50:27.344Z,996.5
2019-05-11T02:51:30.371Z,996.5
2019-05-11T02:52:33.237Z,996.5
2019-05-11T02:53:38.040Z,996.5
2019-05-11T02:54:40.920Z,996.5
2019-05-11T02:55:44.102Z,996.5
2019-05-11T02:56:48.848Z,996.5
2019-05-11T02:57:53.859Z,996.5
2019-05-11T02:58:57.608Z,996.4
2019-05-11T03:00:01.598Z,996.5
2019-05-11T03:01:04.608Z,996.4
2019-05-11T03:02:07.757Z,996.4
2019-05-11T03:03:10.596Z,996.4
2019-05-11T03:04:14.527Z,996.4
2019-05-11T03:05:17.847Z,996.5
2019-05-11T03:06:21.473Z,996.4
2019-05-11T03:07:26.404Z,996.4
2019-05-11T03:08:31.498Z,996.5
2019-05-11T03:09:35.599Z,996.5
2019-05-11T03:10:38.985Z,996.5
2019-05-11T03:11:55.103Z,996.4
2019-05-11T03:12:46.928Z,996.3
2019-05-11T03:13:50.380Z,996.3
2019-05-11T03:14:53.953Z,996.3
2019-05-11T03:15:57.702Z,996.3
2019-05-11T03:17:01.912Z,996.2
2019-05-11T03:18:06.510Z,996.3
2019-05-11T03:19:10.519Z,996.3
2019-05-11T03:20:14.897Z,996.3
2019-05-11T03:21:18.689Z,996.3
2019-05-11T03:22:22.594Z,996.3
2019-05-11T03:23:26.649Z,996.4
2019-05-11T03:24:30.617Z,996.4
2019-05-11T03:25:35.012Z,996.3
2019-05-11T03:26:38.821Z,996.3
2019-05-11T03:27:42.368Z,996.3
2019-05-11T03:28:46.090Z,996.2
2019-05-11T03:29:49.584Z,996.2
2019-05-11T03:30:53.649Z,996.2
2019-05-11T03:32:03.859Z,996.2
2019-05-11T03:33:07.554Z,996.2
2019-05-11T03:34:10.811Z,996.3
2019-05-11T03:35:14.435Z,996.3
2019-05-11T03:36:19.967Z,996.2
2019-05-11T03:37:23.474Z,996.2
2019-05-11T03:38:27.466Z,996.2
2019-05-11T03:39:35.859Z,996.2
2019-05-11T03:40:39.185Z,996.3
2019-05-11T03:41:42.425Z,996.3
2019-05-11T03:42:45.170Z,996.3
2019-05-11T03:43:49.652Z,996.3
2019-05-11T03:44:53.354Z,996.3
2019-05-11T03:45:57.160Z,996.3
2019-05-11T03:47:00.674Z,996.3
2019-05-11T03:48:04.320Z,996.2
2019-05-11T03:49:08.291Z,996.2
2019-05-11T03:50:11.561Z,996.2
2019-05-11T03:51:16.134Z,996.2
2019-05-11T03:52:19.053Z,996.2
2019-05-11T03:53:23.725Z,996.2
2019-05-11T03:54:28.163Z,996.2
2019-05-11T03:55:31.426Z,996.2
2019-05-11T03:56:35.663Z,996.2
2019-05-11T03:57:39.348Z,996.2
2019-05-11T03:58:43.151Z,996.2
2019-05-11T03:59:47.532Z,996.2
2019-05-11T04:00:51.608Z,996.3
2019-05-11T04:01:55.643Z,996.3
2019-05-11T04:02:59.715Z,996.2
2019-05-11T04:04:04.505Z,996.3
2019-05-11T04:05:08.222Z,996.2
2019-05-11T04:06:12.323Z,996.2
2019-05-11T04:07:15.209Z,996.3
2019-05-11T04:08:19.400Z,996.2
2019-05-11T04:09:25.166Z,996.3
2019-05-11T04:10:29.343Z,996.3
2019-05-11T04:11:32.790Z,996.3
2019-05-11T04:12:36.557Z,996.3
2019-05-11T04:13:42.515Z,996.3
2019-05-11T04:14:48.756Z,996.3
2019-05-11T04:15:53.729Z,996.2
2019-05-11T04:16:57.544Z,996.2
2019-05-11T04:18:02.775Z,996.2
2019-05-11T04:19:07.543Z,996.2
2019-05-11T04:20:12.492Z,996.2
2019-05-11T04:21:18.165Z,996.2
2019-05-11T04:22:24.898Z,996.2
2019-05-11T04:23:29.601Z,996.3
2019-05-11T04:24:34.885Z,996.2
2019-05-11T04:25:39.982Z,996.2
2019-05-11T04:26:45.168Z,996.2
2019-05-11T04:27:51.183Z,996.2
2019-05-11T04:28:56.481Z,996.2
2019-05-11T04:30:02.062Z,996.2
2019-05-11T04:31:05.395Z,996.3
2019-05-11T04:32:11.101Z,996.3
2019-05-11T04:33:16.102Z,996.3
2019-05-11T04:34:20.010Z,996.3
2019-05-11T04:35:25.384Z,996.4
2019-05-11T04:36:29.143Z,996.4
2019-05-11T04:37:34.395Z,996.4
2019-05-11T04:38:40.966Z,996.4
2019-05-11T04:39:45.043Z,996.5
2019-05-11T04:40:49.893Z,996.5
2019-05-11T04:41:55.059Z,996.5
2019-05-11T04:43:00.608Z,996.5
2019-05-11T04:44:04.557Z,996.5
2019-05-11T04:45:09.130Z,996.5
2019-05-11T04:46:15.984Z,996.5
2019-05-11T04:47:20.684Z,996.4
2019-05-11T04:48:24.753Z,996.5
2019-05-11T04:49:29.121Z,996.5
2019-05-11T04:50:33.351Z,996.5
2019-05-11T04:51:44.712Z,996.4
2019-05-11T04:52:50.375Z,996.5
2019-05-11T04:53:54.578Z,996.5
2019-05-11T04:55:01.828Z,996.5
2019-05-11T04:56:06.696Z,996.5
2019-05-11T04:57:10.800Z,996.6
2019-05-11T04:58:15.132Z,996.5
2019-05-11T04:59:19.181Z,996.6
2019-05-11T05:00:24.215Z,996.5
2019-05-11T05:01:27.961Z,996.5
2019-05-11T05:02:32.012Z,996.5
2019-05-11T05:03:40.833Z,996.5
2019-05-11T05:04:40.575Z,996.5
2019-05-11T05:05:45.275Z,996.5
2019-05-11T05:06:58.942Z,996.5
2019-05-11T05:08:07.210Z,996.4
2019-05-11T05:08:58.161Z,996.5
2019-05-11T05:10:19.673Z,996.4
2019-05-11T05:11:57.227Z,996.5
2019-05-11T05:45:53.293Z,996.7
2019-05-11T05:46:58.532Z,996.7
2019-05-11T05:57:28.778Z,996.8
2019-05-11T05:58:32.715Z,996.8
2019-05-11T05:59:36.060Z,996.8
2019-05-11T06:00:40.898Z,996.8
2019-05-11T06:01:44.744Z,996.8
2019-05-11T06:02:48.115Z,996.7
2019-05-11T06:03:51.666Z,996.8
2019-05-11T06:04:55.081Z,996.8
2019-05-11T06:05:58.329Z,996.8
2019-05-11T06:07:01.969Z,996.8
2019-05-11T06:08:06.240Z,996.8
2019-05-11T06:09:11.101Z,996.9
2019-05-11T06:10:16.606Z,996.7
2019-05-11T06:11:21.100Z,996.8
2019-05-11T06:13:13.168Z,996.8
2019-05-11T06:15:14.496Z,996.8
2019-05-11T06:16:16.718Z,996.8
2019-05-11T06:17:20.718Z,996.8
2019-05-11T06:18:25.442Z,996.8
2019-05-11T06:19:28.437Z,996.8
2019-05-11T06:20:32.092Z,996.8
2019-05-11T06:21:38.345Z,996.8
2019-05-11T06:22:44.753Z,996.8
2019-05-11T06:27:16.496Z,996.9
2019-05-11T06:28:20.309Z,997.0
2019-05-11T06:29:24.919Z,997.0
2019-05-11T06:30:28.555Z,997.0
2019-05-11T06:31:33.542Z,997.0
2019-05-11T06:32:37.947Z,997.1
2019-05-11T06:33:41.789Z,997.1
2019-05-11T06:34:44.593Z,997.1
2019-05-11T07:03:58.810Z,997.1
2019-05-11T07:05:03.425Z,997.1
2019-05-11T07:06:05.493Z,997.1
2019-05-11T07:07:11.184Z,997.1
2019-05-11T07:08:17.789Z,997.1
2019-05-11T07:09:21.383Z,997.1
2019-05-11T07:10:26.592Z,997.2
2019-05-11T07:11:32.033Z,997.1
2019-05-11T07:12:37.181Z,997.2
2019-05-11T07:13:40.839Z,997.2
2019-05-11T07:14:43.103Z,997.2
2019-05-11T07:15:45.588Z,997.2
2019-05-11T07:16:47.953Z,997.2
2019-05-11T07:17:51.322Z,997.2
2019-05-11T07:18:55.550Z,997.2
2019-05-11T07:19:57.966Z,997.2
2019-05-11T07:21:01.120Z,997.2
2019-05-11T07:22:03.299Z,997.2
2019-05-11T07:23:06.922Z,997.2
2019-05-11T07:24:11.696Z,997.3
2019-05-11T07:25:14.108Z,997.3
2019-05-11T07:26:16.488Z,997.3
2019-05-11T07:27:18.886Z,997.3
2019-05-11T07:28:21.642Z,997.3
2019-05-11T07:29:23.754Z,997.3
2019-05-11T07:30:26.574Z,997.3
2019-05-11T07:31:29.131Z,997.3
2019-05-11T07:32:32.456Z,997.4
2019-05-11T07:33:34.674Z,997.4
2019-05-11T07:34:38.348Z,997.3
2019-05-11T07:35:41.576Z,997.4
2019-05-11T07:36:47.638Z,997.5
2019-05-11T07:37:48.333Z,997.4
2019-05-11T07:38:53.571Z,997.5
2019-05-11T07:39:57.967Z,997.5
2019-05-11T07:41:01.575Z,997.5
2019-05-11T07:42:04.006Z,997.5
2019-05-11T07:43:09.546Z,997.6
2019-05-11T07:44:10.247Z,997.5
2019-05-11T07:45:12.906Z,997.6
2019-05-11T07:46:18.433Z,997.6
2019-05-11T07:47:20.954Z,997.6
2019-05-11T07:48:23.665Z,997.7
2019-05-11T07:49:26.196Z,997.7
2019-05-11T07:50:29.932Z,997.7
2019-05-11T07:51:32.579Z,997.7
2019-05-11T07:52:37.760Z,997.7
2019-05-11T07:53:39.326Z,997.7
2019-05-11T07:54:43.073Z,997.7
2019-05-11T07:55:48.534Z,997.8
2019-05-11T07:56:50.047Z,997.8
2019-05-11T07:57:54.042Z,997.8
2019-05-11T07:58:57.865Z,997.8
2019-05-11T07:59:59.517Z,997.8
2019-05-11T08:01:03.453Z,997.8
2019-05-11T08:02:08.627Z,997.9
2019-05-11T08:03:08.995Z,997.9
2019-05-11T08:04:11.461Z,997.9
2019-05-11T08:05:14.329Z,998.0
2019-05-11T08:06:18.650Z,997.9
2019-05-11T08:07:21.246Z,998.0
2019-05-11T08:08:25.120Z,998.0
2019-05-11T08:09:27.852Z,998.0
2019-05-11T08:10:30.288Z,998.0
2019-05-11T08:11:32.905Z,998.0
2019-05-11T08:12:38.825Z,998.0
2019-05-11T08:13:39.014Z,998.0
2019-05-11T08:14:56.541Z,998.0
2019-05-11T08:15:45.205Z,998.0
2019-05-11T08:16:49.077Z,998.0
2019-05-11T08:17:51.873Z,998.0
2019-05-11T08:18:54.369Z,998.1
2019-05-11T08:19:58.074Z,998.1
2019-05-11T08:21:01.001Z,998.1
2019-05-11T08:22:03.660Z,998.1
2019-05-11T08:23:08.990Z,998.1
2019-05-11T08:24:09.886Z,998.1
2019-05-11T08:25:15.115Z,998.1
2019-05-11T08:26:19.030Z,998.1
2019-05-11T08:27:22.084Z,998.2
2019-05-11T08:28:24.085Z,998.2
2019-05-11T08:29:28.107Z,998.2
2019-05-11T08:30:30.740Z,998.3
2019-05-11T08:31:33.390Z,998.3
2019-05-11T08:32:35.964Z,998.2
2019-05-11T08:33:39.623Z,998.2
2019-05-11T08:34:42.155Z,998.2
2019-05-11T08:35:45.163Z,998.3
2019-05-11T08:36:47.964Z,998.3
2019-05-11T08:37:50.461Z,998.3
2019-05-11T08:38:53.034Z,998.3
2019-05-11T08:39:55.572Z,998.3
2019-05-11T08:40:59.169Z,998.3
2019-05-11T08:42:03.206Z,998.3
2019-05-11T08:43:04.671Z,998.3
2019-05-11T08:44:08.834Z,998.4
2019-05-11T08:45:19.572Z,998.4
2019-05-11T08:46:13.162Z,998.4
2019-05-11T08:47:17.760Z,998.4
2019-05-11T08:48:20.005Z,998.4
2019-05-11T08:49:22.856Z,998.4
2019-05-11T08:50:27.707Z,998.4
2019-05-11T08:51:28.353Z,998.4
2019-05-11T08:52:31.584Z,998.4
2019-05-11T08:53:34.477Z,998.5
2019-05-11T08:54:38.127Z,998.5
2019-05-11T08:55:40.136Z,998.5
2019-05-11T08:56:43.271Z,998.5
2019-05-11T08:57:47.792Z,998.5
2019-05-11T08:58:49.314Z,998.6
2019-05-11T08:59:51.904Z,998.6
2019-05-11T09:00:55.378Z,998.6
2019-05-11T09:01:58.817Z,998.6
2019-05-11T09:03:01.399Z,998.6
2019-05-11T09:04:04.745Z,998.7
2019-05-11T09:05:08.150Z,998.7
2019-05-11T09:06:10.470Z,998.7
2019-05-11T09:07:13.807Z,998.7
2019-05-11T09:08:18.676Z,998.7
2019-05-11T09:09:20.344Z,998.7
2019-05-11T09:10:27.852Z,998.8
2019-05-11T09:11:28.903Z,998.7
2019-05-11T09:12:31.492Z,998.8
2019-05-11T09:13:34.043Z,998.8
2019-05-11T09:14:38.665Z,998.8
2019-05-11T09:15:40.774Z,998.8
2019-05-11T09:16:42.136Z,998.8
2019-05-11T09:17:45.310Z,998.8
2019-05-11T09:18:49.034Z,998.8
2019-05-11T09:19:53.408Z,998.8
2019-05-11T09:20:57.632Z,998.9
2019-05-11T09:22:02.891Z,998.9
2019-05-11T09:23:02.167Z,998.9
2019-05-11T09:24:05.073Z,998.9
2019-05-11T09:25:08.628Z,999.0
2019-05-11T09:26:10.625Z,999.0
2019-05-11T09:27:13.211Z,999.0
2019-05-11T09:28:17.954Z,999.0
2019-05-11T09:29:19.310Z,999.1
2019-05-11T09:30:23.799Z,999.1
2019-05-11T09:31:27.882Z,999.1
2019-05-11T09:32:29.950Z,999.1
2019-05-11T09:33:33.723Z,999.1
2019-05-11T09:34:37.640Z,999.1
2019-05-11T09:35:49.312Z,999.2
2019-05-11T09:36:44.229Z,999.2
2019-05-11T09:37:48.225Z,999.2
2019-05-11T09:38:49.531Z,999.2
2019-05-11T09:39:52.167Z,999.2
2019-05-11T09:40:54.739Z,999.2
2019-05-11T09:41:58.444Z,999.2
2019-05-11T09:43:00.434Z,999.2
2019-05-11T09:44:02.998Z,999.2
2019-05-11T09:45:08.039Z,999.3
2019-05-11T09:46:12.244Z,999.3
2019-05-11T09:47:15.138Z,999.3
2019-05-11T09:48:19.289Z,999.4
2019-05-11T09:49:22.741Z,999.4
2019-05-11T09:50:28.290Z,999.4
2019-05-11T09:51:29.223Z,999.4
2019-05-11T09:52:32.730Z,999.4
2019-05-11T09:53:35.517Z,999.4
2019-05-11T09:54:38.577Z,999.4
2019-05-11T09:55:42.528Z,999.4
2019-05-11T09:56:48.456Z,999.4
2019-05-11T09:57:49.738Z,999.4
2019-05-11T09:58:53.626Z,999.4
2019-05-11T09:59:58.190Z,999.4
2019-05-11T10:00:59.268Z,999.4
2019-05-11T10:02:02.408Z,999.4
2019-05-11T10:03:05.352Z,999.4
2019-05-11T10:04:08.951Z,999.3
2019-05-11T10:05:12.100Z,999.4
2019-05-11T10:06:15.599Z,999.4
2019-05-11T10:07:18.491Z,999.4
2019-05-11T10:08:21.661Z,999.4
2019-05-11T10:09:27.960Z,999.4
2019-05-11T10:10:30.508Z,999.5
2019-05-11T10:11:33.318Z,999.5
2019-05-11T10:12:38.866Z,999.5
2019-05-11T10:13:43.117Z,999.5
2019-05-11T10:14:48.514Z,999.6
2019-05-11T10:16:03.498Z,999.6
2019-05-11T10:16:54.317Z,999.6
2019-05-11T10:17:59.223Z,999.6
2019-05-11T10:19:03.967Z,999.6
2019-05-11T10:20:08.902Z,999.6
2019-05-11T10:21:10.999Z,999.6
2019-05-11T10:22:18.413Z,999.6
2019-05-11T10:23:19.595Z,999.7
2019-05-11T10:24:23.528Z,999.7
2019-05-11T10:25:28.607Z,999.7
2019-05-11T10:26:31.231Z,999.7
2019-05-11T10:27:34.834Z,999.7
2019-05-11T10:28:38.767Z,999.7
2019-05-11T10:29:41.976Z,999.7
2019-05-11T10:30:44.795Z,999.7
2019-05-11T10:31:48.279Z,999.7
2019-05-11T10:32:52.432Z,999.7
2019-05-11T10:33:57.914Z,999.7
2019-05-11T10:34:59.181Z,999.7
2019-05-11T10:36:03.085Z,999.8
2019-05-11T10:37:05.162Z,999.8
2019-05-11T10:38:09.057Z,999.8
2019-05-11T10:39:12.012Z,999.8
2019-05-11T10:40:14.725Z,999.8
2019-05-11T10:41:18.497Z,999.8
2019-05-11T10:42:23.759Z,999.9
2019-05-11T10:43:28.786Z,999.9
2019-05-11T10:44:31.421Z,999.8
2019-05-11T10:45:34.741Z,999.8
2019-05-11T10:46:38.201Z,999.8
2019-05-11T10:47:40.971Z,999.9
2019-05-11T10:48:43.687Z,999.9
2019-05-11T10:49:48.440Z,999.9
2019-05-11T10:50:52.851Z,999.9
2019-05-11T10:51:58.559Z,999.9
2019-05-11T10:53:01.068Z,999.9
2019-05-11T10:54:04.315Z,999.9
2019-05-11T10:55:08.710Z,999.9
2019-05-11T10:56:11.529Z,999.9
2019-05-11T10:57:13.985Z,999.9
2019-05-11T10:58:18.274Z,999.9
2019-05-11T10:59:19.609Z,999.9
2019-05-11T11:00:21.785Z,1000.0
2019-05-11T11:01:24.641Z,1000.0
2019-05-11T11:02:29.068Z,1000.0
2019-05-11T11:03:30.968Z,1000.0
2019-05-11T11:04:32.829Z,1000.0
2019-05-11T11:05:34.986Z,1000.0
2019-05-11T11:06:38.489Z,1000.0
2019-05-11T11:07:38.974Z,1000.0
2019-05-11T11:08:40.875Z,1000.1
2019-05-11T11:09:42.671Z,1000.0
2019-05-11T11:10:44.623Z,1000.1
2019-05-11T11:11:48.638Z,1000.1
2019-05-11T11:12:48.958Z,1000.1
2019-05-11T11:13:50.526Z,1000.1
2019-05-11T11:14:52.774Z,1000.1
2019-05-11T11:15:57.811Z,1000.1
2019-05-11T11:16:58.631Z,1000.0
2019-05-11T11:18:00.174Z,1000.1
2019-05-11T11:19:02.038Z,1000.1
2019-05-11T11:20:03.674Z,1000.1
2019-05-11T11:21:05.515Z,1000.2
2019-05-11T11:22:32.037Z,1000.2
2019-05-11T11:23:09.035Z,1000.2
2019-05-11T11:24:11.335Z,1000.2
2019-05-11T11:25:13.104Z,1000.2
2019-05-11T11:26:15.443Z,1000.2
2019-05-11T11:27:18.467Z,1000.1
2019-05-11T11:28:19.406Z,1000.3
2019-05-11T11:29:21.523Z,1000.3
2019-05-11T11:30:23.564Z,1000.3
2019-05-11T11:31:25.691Z,1000.2
2019-05-11T11:32:28.107Z,1000.2
2019-05-11T11:33:29.815Z,1000.3
2019-05-11T11:34:31.449Z,1000.3
2019-05-11T11:35:32.859Z,1000.2
2019-05-11T11:36:34.489Z,1000.3
2019-05-11T11:37:38.452Z,1000.2
2019-05-11T11:38:38.460Z,1000.3
2019-05-11T11:39:41.146Z,1000.3
2019-05-11T11:40:43.374Z,1000.3
2019-05-11T11:41:48.374Z,1000.2
2019-05-11T11:42:48.535Z,1000.3
2019-05-11T11:43:52.126Z,1000.3
2019-05-11T11:44:54.702Z,1000.2
2019-05-11T11:46:00.231Z,1000.3
2019-05-11T11:47:08.449Z,1000.4
2019-05-11T11:48:12.105Z,1000.4
2019-05-11T11:49:15.915Z,1000.3
2019-05-11T11:50:18.383Z,1000.2
2019-05-11T11:51:21.068Z,1000.3
2019-05-11T11:52:22.449Z,1000.3
2019-05-11T11:53:27.852Z,1000.4
2019-05-11T11:54:29.025Z,1000.4
2019-05-11T11:55:30.604Z,1000.5
2019-05-11T11:56:32.248Z,1000.5
2019-05-11T11:57:33.792Z,1000.4
2019-05-11T11:58:35.408Z,1000.4
2019-05-11T11:59:38.535Z,1000.4
2019-05-11T12:00:39.143Z,1000.4
2019-05-11T12:01:40.011Z,1000.5
2019-05-11T12:02:41.567Z,1000.5
2019-05-11T12:03:43.030Z,1000.6
2019-05-11T12:04:44.640Z,1000.6
2019-05-11T12:05:47.560Z,1000.6
2019-05-11T12:06:49.038Z,1000.7
2019-05-11T12:07:49.300Z,1000.6
2019-05-11T12:08:50.734Z,1000.6
2019-05-11T12:09:52.435Z,1000.5
2019-05-11T12:10:54.093Z,1000.5
2019-05-11T12:11:57.856Z,1000.6
2019-05-11T12:12:58.123Z,1000.6
2019-05-11T12:13:58.828Z,1000.7
2019-05-11T12:15:00.483Z,1000.7
2019-05-11T12:16:02.214Z,1000.7
2019-05-11T12:17:07.685Z,1000.8
2019-05-11T12:18:08.081Z,1000.7
2019-05-11T12:19:08.323Z,1000.8
2019-05-11T12:20:09.276Z,1000.8
2019-05-11T12:21:10.890Z,1000.8
2019-05-11T12:22:12.611Z,1000.8
2019-05-11T12:23:14.460Z,1000.9
2019-05-11T12:24:18.550Z,1000.9
2019-05-11T12:25:18.534Z,1000.9
2019-05-11T12:26:19.700Z,1000.9
2019-05-11T12:27:21.482Z,1000.9
2019-05-11T12:28:23.234Z,1000.9
2019-05-11T12:29:24.935Z,1000.9
2019-05-11T12:30:28.348Z,1000.9
2019-05-11T12:31:30.661Z,1000.8
2019-05-11T12:32:30.157Z,1000.9
2019-05-11T12:33:32.107Z,1000.8
2019-05-11T12:34:34.078Z,1000.8
2019-05-11T12:35:37.803Z,1000.9
2019-05-11T12:36:38.661Z,1001.0
2019-05-11T12:37:39.680Z,1001.0
2019-05-11T12:38:41.494Z,1000.9
2019-05-11T12:39:43.324Z,1001.0
2019-05-11T12:40:45.010Z,1001.0
2019-05-11T12:41:47.946Z,1001.0
2019-05-11T12:42:48.910Z,1001.0
2019-05-11T12:43:50.184Z,1001.0
2019-05-11T12:44:51.973Z,1001.0
2019-05-11T12:45:53.730Z,1001.0
2019-05-11T12:46:58.153Z,1001.0
2019-05-11T12:47:58.565Z,1001.1
2019-05-11T12:48:59.232Z,1001.1
2019-05-11T12:50:00.429Z,1001.2
2019-05-11T12:51:02.837Z,1001.3
2019-05-11T12:52:04.580Z,1001.2
2019-05-11T12:53:07.841Z,1001.3
2019-05-11T12:54:08.292Z,1001.3
2019-05-11T12:55:09.072Z,1001.3
2019-05-11T12:56:10.503Z,1001.3
2019-05-11T12:57:11.941Z,1001.3
2019-05-11T12:58:13.343Z,1001.3
2019-05-11T12:59:14.839Z,1001.3
2019-05-11T13:00:17.846Z,1001.3
2019-05-11T13:01:18.818Z,1001.3
2019-05-11T13:02:20.622Z,1001.3
2019-05-11T13:03:21.787Z,1001.4
2019-05-11T13:04:23.227Z,1001.4
2019-05-11T13:05:24.651Z,1001.4
2019-05-11T13:06:27.922Z,1001.5
2019-05-11T13:07:28.460Z,1001.5
2019-05-11T13:08:28.836Z,1001.5
2019-05-11T13:09:30.263Z,1001.5
2019-05-11T13:10:31.688Z,1001.6
2019-05-11T13:11:33.139Z,1001.6
2019-05-11T13:12:34.572Z,1001.6
2019-05-11T13:13:37.655Z,1001.6
2019-05-11T13:14:38.127Z,1001.7
2019-05-11T13:15:38.887Z,1001.7
2019-05-11T13:16:40.113Z,1001.8
2019-05-11T13:17:41.616Z,1001.8
2019-05-11T13:18:42.974Z,1001.7
2019-05-11T13:19:44.416Z,1001.7
2019-05-11T13:20:48.042Z,1001.7
2019-05-11T13:21:48.679Z,1001.7
2019-05-11T13:22:48.841Z,1001.8
2019-05-11T13:23:49.979Z,1001.8
2019-05-11T13:24:51.411Z,1001.8
2019-05-11T13:25:52.843Z,1001.9
2019-05-11T13:26:54.296Z,1001.9
2019-05-11T13:27:57.917Z,1001.9
2019-05-11T13:28:58.426Z,1001.9
2019-05-11T13:29:59.189Z,1002.0
2019-05-11T13:31:00.027Z,1002.1
2019-05-11T13:32:01.474Z,1002.1
2019-05-11T13:33:02.912Z,1002.1
2019-05-11T13:34:04.320Z,1002.1
2019-05-11T13:35:05.742Z,1002.2
2019-05-11T13:36:08.903Z,1002.2
2019-05-11T13:37:08.554Z,1002.3
2019-05-11T13:38:09.983Z,1002.3
2019-05-11T13:39:11.432Z,1002.3
2019-05-11T13:40:12.928Z,1002.4
2019-05-11T13:41:14.469Z,1002.4
2019-05-11T13:42:15.890Z,1002.4
2019-05-11T13:43:18.878Z,1002.4
2019-05-11T13:44:18.801Z,1002.4
2019-05-11T13:45:20.084Z,1002.5
2019-05-11T13:46:21.507Z,1002.5
2019-05-11T13:47:22.987Z,1002.5
2019-05-11T13:48:24.528Z,1002.6
2019-05-11T13:49:28.176Z,1002.6
2019-05-11T13:50:29.429Z,1002.6
2019-05-11T13:51:28.790Z,1002.7
2019-05-11T13:52:30.225Z,1002.7
2019-05-11T13:53:31.661Z,1002.7
2019-05-11T13:54:33.134Z,1002.7
2019-05-11T13:55:34.624Z,1002.7
2019-05-11T13:56:37.756Z,1002.7
2019-05-11T13:57:37.966Z,1002.7
2019-05-11T13:58:39.217Z,1002.7
2019-05-11T13:59:41.028Z,1002.7
2019-05-11T14:00:42.701Z,1002.7
2019-05-11T14:01:44.162Z,1002.7
2019-05-11T14:02:48.408Z,1002.7
2019-05-11T14:03:49.480Z,1002.7
2019-05-11T14:04:50.977Z,1002.8
2019-05-11T14:05:52.686Z,1002.8
2019-05-11T14:06:54.151Z,1002.8
2019-05-11T14:07:55.776Z,1002.9
2019-05-11T14:08:58.684Z,1002.9
2019-05-11T14:09:59.185Z,1002.9
2019-05-11T14:11:00.801Z,1002.9
2019-05-11T14:12:02.631Z,1003.0
2019-05-11T14:13:04.263Z,1003.0
2019-05-11T14:14:07.588Z,1003.0
2019-05-11T14:15:08.541Z,1003.0
2019-05-11T14:16:09.861Z,1003.1
2019-05-11T14:17:11.684Z,1003.2
2019-05-11T14:18:13.629Z,1003.1
2019-05-11T14:19:17.215Z,1003.1
2019-05-11T14:20:18.755Z,1003.2
2019-05-11T14:21:20.419Z,1003.2
2019-05-11T14:22:23.674Z,1003.1
2019-05-11T14:23:29.116Z,1003.2
2019-05-11T14:24:28.936Z,1003.2
2019-05-11T14:25:32.689Z,1003.2
2019-05-11T14:26:35.560Z,1003.2
2019-05-11T14:27:39.027Z,1003.3
2019-05-11T14:28:40.080Z,1003.2
2019-05-11T14:29:42.897Z,1003.3
2019-05-11T14:30:45.117Z,1003.3
2019-05-11T14:31:48.551Z,1003.4
2019-05-11T14:32:50.249Z,1003.4
2019-05-11T14:33:52.245Z,1003.4
2019-05-11T14:34:57.770Z,1003.5
2019-05-11T14:35:58.090Z,1003.5
2019-05-11T14:37:00.583Z,1003.5
2019-05-11T14:38:02.745Z,1003.5
2019-05-11T14:39:05.054Z,1003.6
2019-05-11T14:40:08.568Z,1003.7
2019-05-11T14:41:12.348Z,1003.7
2019-05-11T14:42:14.513Z,1003.6
2019-05-11T14:43:18.756Z,1003.6